sensor_id;sensor_type;location;lat;lon;timestamp;P1;durP1;ratioP1;P2;durP2;ratioP2
14734;SDS011;7458;49.002;8.472;2022-09-03T00:02:35;1242.47;;;999.90;;
14734;SDS011;7458;49.002;8.472;2022-09-03T00:16:39;1341.78;;;999.90;;
14734;SDS011;7458;49.002;8.472;2022-09-03T00:19:30;1232.38;;;999.90;;
14734;SDS011;7458;49.002;8.472;2022-09-03T00:22:06;1388.53;;;999.90;;
14734;SDS011;7458;49.002;8.472;2022-09-03T00:24:39;1238.47;;;999.90;;
14734;SDS011;7458;49.002;8.472;2022-09-03T00:27:12;1329.03;;;999.90;;
14734;SDS011;7458;49.002;8.472;2022-09-03T00:29:48;1226.57;;;999.90;;
14734;SDS011;7458;49.002;8.472;2022-09-03T00:32:36;1236.15;;;999.90;;
14734;SDS011;7458;49.002;8.472;2022-09-03T00:35:16;1342.40;;;999.90;;
14734;SDS011;7458;49.002;8.472;2022-09-03T00:38:01;1342.93;;;999.90;;
14734;SDS011;7458;49.002;8.472;2022-09-03T00:49:45;1333.88;;;999.90;;
14734;SDS011;7458;49.002;8.472;2022-09-03T00:51:56;1326.00;;;999.90;;
14734;SDS011;7458;49.002;8.472;2022-09-03T01:00:13;1331.72;;;999.90;;
14734;SDS011;7458;49.002;8.472;2022-09-03T01:08:48;1250.75;;;999.90;;
14734;SDS011;7458;49.002;8.472;2022-09-03T01:12:00;1233.22;;;999.90;;
14734;SDS011;7458;49.002;8.472;2022-09-03T01:17:31;1227.85;;;999.90;;
14734;SDS011;7458;49.002;8.472;2022-09-03T01:26:15;1268.43;;;999.90;;
14734;SDS011;7458;49.002;8.472;2022-09-03T01:29:25;1322.65;;;999.90;;
14734;SDS011;7458;49.002;8.472;2022-09-03T01:32:06;1321.45;;;999.90;;
14734;SDS011;7458;49.002;8.472;2022-09-03T01:35:11;1343.63;;;999.90;;
14734;SDS011;7458;49.002;8.472;2022-09-03T01:58:23;1331.88;;;999.90;;
14734;SDS011;7458;49.002;8.472;2022-09-03T02:01:09;1334.43;;;999.90;;
14734;SDS011;7458;49.002;8.472;2022-09-03T02:03:47;1228.00;;;999.90;;
14734;SDS011;7458;49.002;8.472;2022-09-03T02:06:14;1231.57;;;999.90;;
14734;SDS011;7458;49.002;8.472;2022-09-03T02:08:42;1224.90;;;999.90;;
14734;SDS011;7458;49.002;8.472;2022-09-03T02:11:08;1223.53;;;999.90;;
14734;SDS011;7458;49.002;8.472;2022-09-03T02:13:37;1219.10;;;999.90;;
14734;SDS011;7458;49.002;8.472;2022-09-03T02:16:09;1297.53;;;999.90;;
14734;SDS011;7458;49.002;8.472;2022-09-03T02:18:40;1224.78;;;999.90;;
14734;SDS011;7458;49.002;8.472;2022-09-03T02:21:12;1220.97;;;999.90;;
14734;SDS011;7458;49.002;8.472;2022-09-03T02:23:44;1217.20;;;999.90;;
14734;SDS011;7458;49.002;8.472;2022-09-03T02:26:10;1251.60;;;999.90;;
14734;SDS011;7458;49.002;8.472;2022-09-03T02:28:42;1223.65;;;999.90;;
14734;SDS011;7458;49.002;8.472;2022-09-03T02:31:08;1241.15;;;999.90;;
14734;SDS011;7458;49.002;8.472;2022-09-03T02:33:38;1232.78;;;999.90;;
14734;SDS011;7458;49.002;8.472;2022-09-03T02:36:12;1226.10;;;999.90;;
14734;SDS011;7458;49.002;8.472;2022-09-03T02:38:41;1230.00;;;999.90;;
14734;SDS011;7458;49.002;8.472;2022-09-03T02:41:08;1220.50;;;999.90;;
14734;SDS011;7458;49.002;8.472;2022-09-03T02:44:40;1267.60;;;999.90;;
14734;SDS011;7458;49.002;8.472;2022-09-03T02:47:02;1245.57;;;999.90;;
14734;SDS011;7458;49.002;8.472;2022-09-03T02:49:32;1311.40;;;999.90;;
14734;SDS011;7458;49.002;8.472;2022-09-03T02:51:59;1327.03;;;999.90;;
14734;SDS011;7458;49.002;8.472;2022-09-03T02:54:30;1337.65;;;999.90;;
14734;SDS011;7458;49.002;8.472;2022-09-03T02:57:00;1267.00;;;999.90;;
14734;SDS011;7458;49.002;8.472;2022-09-03T02:59:27;1333.20;;;999.90;;
14734;SDS011;7458;49.002;8.472;2022-09-03T03:01:53;1259.63;;;999.90;;
14734;SDS011;7458;49.002;8.472;2022-09-03T03:04:19;1247.70;;;999.90;;
14734;SDS011;7458;49.002;8.472;2022-09-03T03:06:45;1298.15;;;999.90;;
14734;SDS011;7458;49.002;8.472;2022-09-03T03:09:11;1387.80;;;999.90;;
14734;SDS011;7458;49.002;8.472;2022-09-03T03:11:38;1318.30;;;999.90;;
14734;SDS011;7458;49.002;8.472;2022-09-03T03:14:04;1268.38;;;999.90;;
14734;SDS011;7458;49.002;8.472;2022-09-03T03:16:30;1417.05;;;999.90;;
14734;SDS011;7458;49.002;8.472;2022-09-03T03:18:56;1379.13;;;999.90;;
14734;SDS011;7458;49.002;8.472;2022-09-03T03:21:22;1247.13;;;999.90;;
14734;SDS011;7458;49.002;8.472;2022-09-03T03:23:48;1248.65;;;999.90;;
14734;SDS011;7458;49.002;8.472;2022-09-03T03:26:15;1247.35;;;999.90;;
14734;SDS011;7458;49.002;8.472;2022-09-03T03:28:44;1341.32;;;999.90;;
14734;SDS011;7458;49.002;8.472;2022-09-03T03:31:16;1391.68;;;999.90;;
14734;SDS011;7458;49.002;8.472;2022-09-03T03:33:49;1363.43;;;999.90;;
14734;SDS011;7458;49.002;8.472;2022-09-03T03:36:28;1371.78;;;999.90;;
14734;SDS011;7458;49.002;8.472;2022-09-03T03:38:57;1289.15;;;999.90;;
14734;SDS011;7458;49.002;8.472;2022-09-03T03:41:25;1265.72;;;999.90;;
14734;SDS011;7458;49.002;8.472;2022-09-03T03:43:56;1260.30;;;999.90;;
14734;SDS011;7458;49.002;8.472;2022-09-03T03:46:28;1317.55;;;999.90;;
14734;SDS011;7458;49.002;8.472;2022-09-03T03:49:05;1329.55;;;999.90;;
14734;SDS011;7458;49.002;8.472;2022-09-03T03:51:33;1327.88;;;999.90;;
14734;SDS011;7458;49.002;8.472;2022-09-03T03:54:01;1334.97;;;999.90;;
14734;SDS011;7458;49.002;8.472;2022-09-03T03:56:27;1322.13;;;999.90;;
14734;SDS011;7458;49.002;8.472;2022-09-03T03:58:53;1238.65;;;999.90;;
14734;SDS011;7458;49.002;8.472;2022-09-03T04:01:21;1326.18;;;999.90;;
14734;SDS011;7458;49.002;8.472;2022-09-03T04:03:50;1326.68;;;999.90;;
14734;SDS011;7458;49.002;8.472;2022-09-03T04:06:19;1319.20;;;999.90;;
14734;SDS011;7458;49.002;8.472;2022-09-03T04:08:46;1327.72;;;999.90;;
14734;SDS011;7458;49.002;8.472;2022-09-03T04:11:14;1345.47;;;999.90;;
14734;SDS011;7458;49.002;8.472;2022-09-03T04:13:43;1322.53;;;999.90;;
14734;SDS011;7458;49.002;8.472;2022-09-03T04:16:15;1323.15;;;999.90;;
14734;SDS011;7458;49.002;8.472;2022-09-03T04:18:45;1237.45;;;999.90;;
14734;SDS011;7458;49.002;8.472;2022-09-03T04:21:17;1238.82;;;999.90;;
14734;SDS011;7458;49.002;8.472;2022-09-03T04:23:48;1244.68;;;999.90;;
14734;SDS011;7458;49.002;8.472;2022-09-03T04:26:19;1342.70;;;999.90;;
14734;SDS011;7458;49.002;8.472;2022-09-03T04:28:48;1244.32;;;999.90;;
14734;SDS011;7458;49.002;8.472;2022-09-03T04:31:15;1331.25;;;999.90;;
14734;SDS011;7458;49.002;8.472;2022-09-03T04:33:44;1233.32;;;999.90;;
14734;SDS011;7458;49.002;8.472;2022-09-03T04:36:13;1316.68;;;999.90;;
14734;SDS011;7458;49.002;8.472;2022-09-03T04:38:49;1223.88;;;999.90;;
14734;SDS011;7458;49.002;8.472;2022-09-03T04:41:19;1224.07;;;999.90;;
14734;SDS011;7458;49.002;8.472;2022-09-03T04:43:52;1312.85;;;999.90;;
14734;SDS011;7458;49.002;8.472;2022-09-03T04:46:20;1222.28;;;999.90;;
14734;SDS011;7458;49.002;8.472;2022-09-03T04:48:49;1233.63;;;999.90;;
14734;SDS011;7458;49.002;8.472;2022-09-03T04:51:20;1240.88;;;999.90;;
14734;SDS011;7458;49.002;8.472;2022-09-03T04:53:55;1249.03;;;999.90;;
14734;SDS011;7458;49.002;8.472;2022-09-03T04:56:31;1249.97;;;999.90;;
14734;SDS011;7458;49.002;8.472;2022-09-03T04:59:00;1322.63;;;999.90;;
14734;SDS011;7458;49.002;8.472;2022-09-03T05:01:30;1232.82;;;999.90;;
14734;SDS011;7458;49.002;8.472;2022-09-03T05:03:58;1234.85;;;999.90;;
14734;SDS011;7458;49.002;8.472;2022-09-03T05:06:25;1323.80;;;999.90;;
14734;SDS011;7458;49.002;8.472;2022-09-03T05:08:55;1224.35;;;999.90;;
14734;SDS011;7458;49.002;8.472;2022-09-03T05:11:23;1235.43;;;999.90;;
14734;SDS011;7458;49.002;8.472;2022-09-03T05:13:52;1223.45;;;999.90;;
14734;SDS011;7458;49.002;8.472;2022-09-03T05:16:22;1223.10;;;999.90;;
14734;SDS011;7458;49.002;8.472;2022-09-03T05:18:53;1328.32;;;999.90;;
14734;SDS011;7458;49.002;8.472;2022-09-03T05:21:23;1223.55;;;999.90;;
14734;SDS011;7458;49.002;8.472;2022-09-03T05:23:50;1220.88;;;999.90;;
14734;SDS011;7458;49.002;8.472;2022-09-03T05:26:18;1231.35;;;999.90;;
14734;SDS011;7458;49.002;8.472;2022-09-03T05:28:52;1328.53;;;999.90;;
14734;SDS011;7458;49.002;8.472;2022-09-03T05:31:21;1227.22;;;999.90;;
14734;SDS011;7458;49.002;8.472;2022-09-03T05:33:51;1330.32;;;999.90;;
14734;SDS011;7458;49.002;8.472;2022-09-03T05:36:20;1234.75;;;999.90;;
14734;SDS011;7458;49.002;8.472;2022-09-03T05:38:48;1242.40;;;999.90;;
14734;SDS011;7458;49.002;8.472;2022-09-03T05:41:15;1229.43;;;999.90;;
14734;SDS011;7458;49.002;8.472;2022-09-03T05:43:42;1311.75;;;999.90;;
14734;SDS011;7458;49.002;8.472;2022-09-03T05:46:12;1236.38;;;999.90;;
14734;SDS011;7458;49.002;8.472;2022-09-03T05:48:42;1311.28;;;999.90;;
14734;SDS011;7458;49.002;8.472;2022-09-03T05:51:10;1306.20;;;999.90;;
14734;SDS011;7458;49.002;8.472;2022-09-03T05:53:41;1220.47;;;999.90;;
14734;SDS011;7458;49.002;8.472;2022-09-03T05:56:19;1309.40;;;999.90;;
14734;SDS011;7458;49.002;8.472;2022-09-03T05:58:48;1291.50;;;999.90;;
14734;SDS011;7458;49.002;8.472;2022-09-03T06:01:18;1218.35;;;999.90;;
14734;SDS011;7458;49.002;8.472;2022-09-03T06:03:52;1215.05;;;999.90;;
14734;SDS011;7458;49.002;8.472;2022-09-03T06:06:25;1307.97;;;999.90;;
14734;SDS011;7458;49.002;8.472;2022-09-03T06:08:57;1292.22;;;999.90;;
14734;SDS011;7458;49.002;8.472;2022-09-03T06:11:35;1215.78;;;999.90;;
14734;SDS011;7458;49.002;8.472;2022-09-03T06:14:04;1212.13;;;999.90;;
14734;SDS011;7458;49.002;8.472;2022-09-03T06:16:33;1227.93;;;999.90;;
14734;SDS011;7458;49.002;8.472;2022-09-03T06:19:06;1238.18;;;999.90;;
14734;SDS011;7458;49.002;8.472;2022-09-03T06:21:37;1241.43;;;999.90;;
14734;SDS011;7458;49.002;8.472;2022-09-03T06:24:09;1221.33;;;999.90;;
14734;SDS011;7458;49.002;8.472;2022-09-03T06:26:51;1227.55;;;999.90;;
14734;SDS011;7458;49.002;8.472;2022-09-03T06:29:17;1317.65;;;999.90;;
14734;SDS011;7458;49.002;8.472;2022-09-03T06:31:44;1218.65;;;999.90;;
14734;SDS011;7458;49.002;8.472;2022-09-03T06:34:12;1219.43;;;999.90;;
14734;SDS011;7458;49.002;8.472;2022-09-03T06:36:38;1374.10;;;999.90;;
14734;SDS011;7458;49.002;8.472;2022-09-03T06:39:08;1364.75;;;999.90;;
14734;SDS011;7458;49.002;8.472;2022-09-03T06:41:34;1262.07;;;999.90;;
14734;SDS011;7458;49.002;8.472;2022-09-03T06:44:00;1343.80;;;999.90;;
14734;SDS011;7458;49.002;8.472;2022-09-03T06:46:30;1290.97;;;999.90;;
14734;SDS011;7458;49.002;8.472;2022-09-03T06:49:02;1252.03;;;999.90;;
14734;SDS011;7458;49.002;8.472;2022-09-03T06:51:29;1321.25;;;999.90;;
14734;SDS011;7458;49.002;8.472;2022-09-03T06:54:04;1244.75;;;999.90;;
14734;SDS011;7458;49.002;8.472;2022-09-03T06:56:35;1243.03;;;999.90;;
14734;SDS011;7458;49.002;8.472;2022-09-03T06:59:04;1312.65;;;999.90;;
14734;SDS011;7458;49.002;8.472;2022-09-03T07:01:37;1321.72;;;999.90;;
14734;SDS011;7458;49.002;8.472;2022-09-03T07:04:06;1240.45;;;999.90;;
14734;SDS011;7458;49.002;8.472;2022-09-03T07:06:37;1231.95;;;999.90;;
14734;SDS011;7458;49.002;8.472;2022-09-03T07:09:06;5.03;;;4.63;;
14734;SDS011;7458;49.002;8.472;2022-09-03T07:11:33;6.95;;;4.78;;
14734;SDS011;7458;49.002;8.472;2022-09-03T07:14:01;6.97;;;5.22;;
14734;SDS011;7458;49.002;8.472;2022-09-03T07:16:31;6.05;;;4.97;;
14734;SDS011;7458;49.002;8.472;2022-09-03T07:19:00;6.07;;;5.47;;
14734;SDS011;7458;49.002;8.472;2022-09-03T07:21:30;6.03;;;5.43;;
14734;SDS011;7458;49.002;8.472;2022-09-03T07:23:58;8.68;;;5.35;;
14734;SDS011;7458;49.002;8.472;2022-09-03T07:26:25;8.20;;;5.63;;
14734;SDS011;7458;49.002;8.472;2022-09-03T07:28:55;7.90;;;5.55;;
14734;SDS011;7458;49.002;8.472;2022-09-03T07:31:24;5.97;;;4.65;;
14734;SDS011;7458;49.002;8.472;2022-09-03T07:33:59;10.07;;;8.40;;
14734;SDS011;7458;49.002;8.472;2022-09-03T07:39:04;7.93;;;5.57;;
14734;SDS011;7458;49.002;8.472;2022-09-03T07:41:30;7.13;;;5.95;;
14734;SDS011;7458;49.002;8.472;2022-09-03T07:43:59;8.30;;;6.18;;
14734;SDS011;7458;49.002;8.472;2022-09-03T07:46:29;7.63;;;7.00;;
14734;SDS011;7458;49.002;8.472;2022-09-03T07:48:58;11.70;;;6.40;;
14734;SDS011;7458;49.002;8.472;2022-09-03T07:51:36;10.40;;;7.30;;
14734;SDS011;7458;49.002;8.472;2022-09-03T07:54:03;9.75;;;8.85;;
14734;SDS011;7458;49.002;8.472;2022-09-03T07:56:35;9.95;;;7.93;;
14734;SDS011;7458;49.002;8.472;2022-09-03T07:59:03;9.20;;;8.35;;
14734;SDS011;7458;49.002;8.472;2022-09-03T08:01:29;7.38;;;6.05;;
14734;SDS011;7458;49.002;8.472;2022-09-03T08:03:57;11.40;;;8.18;;
14734;SDS011;7458;49.002;8.472;2022-09-03T08:06:24;12.75;;;8.13;;
14734;SDS011;7458;49.002;8.472;2022-09-03T08:09:04;8.93;;;8.07;;
14734;SDS011;7458;49.002;8.472;2022-09-03T08:11:35;11.05;;;9.95;;
14734;SDS011;7458;49.002;8.472;2022-09-03T08:14:04;10.38;;;9.38;;
14734;SDS011;7458;49.002;8.472;2022-09-03T08:16:37;9.52;;;8.52;;
14734;SDS011;7458;49.002;8.472;2022-09-03T08:19:12;11.82;;;9.50;;
14734;SDS011;7458;49.002;8.472;2022-09-03T08:21:39;9.60;;;8.60;;
14734;SDS011;7458;49.002;8.472;2022-09-03T08:24:06;14.60;;;10.05;;
14734;SDS011;7458;49.002;8.472;2022-09-03T08:26:33;17.75;;;10.40;;
14734;SDS011;7458;49.002;8.472;2022-09-03T08:29:03;11.23;;;9.60;;
14734;SDS011;7458;49.002;8.472;2022-09-03T08:31:30;10.52;;;7.75;;
14734;SDS011;7458;49.002;8.472;2022-09-03T08:33:58;7.75;;;6.95;;
14734;SDS011;7458;49.002;8.472;2022-09-03T08:36:31;9.48;;;8.65;;
14734;SDS011;7458;49.002;8.472;2022-09-03T08:39:03;12.95;;;8.52;;
14734;SDS011;7458;49.002;8.472;2022-09-03T08:50:15;14.27;;;11.25;;
14734;SDS011;7458;49.002;8.472;2022-09-03T08:55:51;10.02;;;8.88;;
14734;SDS011;7458;49.002;8.472;2022-09-03T08:58:36;10.70;;;9.18;;
14734;SDS011;7458;49.002;8.472;2022-09-03T09:01:09;12.30;;;10.25;;
14734;SDS011;7458;49.002;8.472;2022-09-03T09:04:05;10.60;;;9.25;;
14734;SDS011;7458;49.002;8.472;2022-09-03T09:06:59;15.52;;;10.93;;
14734;SDS011;7458;49.002;8.472;2022-09-03T09:12:39;12.10;;;8.38;;
14734;SDS011;7458;49.002;8.472;2022-09-03T09:15:27;10.85;;;8.65;;
14734;SDS011;7458;49.002;8.472;2022-09-03T09:18:22;9.50;;;8.70;;
14734;SDS011;7458;49.002;8.472;2022-09-03T09:21:19;9.43;;;8.43;;
14734;SDS011;7458;49.002;8.472;2022-09-03T09:24:00;8.57;;;7.80;;
14734;SDS011;7458;49.002;8.472;2022-09-03T09:26:36;7.82;;;7.10;;
14734;SDS011;7458;49.002;8.472;2022-09-03T09:29:07;8.35;;;7.65;;
14734;SDS011;7458;49.002;8.472;2022-09-03T09:31:36;10.68;;;9.55;;
14734;SDS011;7458;49.002;8.472;2022-09-03T09:34:05;12.60;;;8.02;;
14734;SDS011;7458;49.002;8.472;2022-09-03T09:37:07;10.55;;;8.57;;
14734;SDS011;7458;49.002;8.472;2022-09-03T09:39:29;11.32;;;8.23;;
14734;SDS011;7458;49.002;8.472;2022-09-03T09:42:06;8.57;;;7.63;;
14734;SDS011;7458;49.002;8.472;2022-09-03T09:44:37;10.43;;;9.25;;
14734;SDS011;7458;49.002;8.472;2022-09-03T09:47:12;11.23;;;8.80;;
14734;SDS011;7458;49.002;8.472;2022-09-03T09:49:59;9.88;;;7.68;;
14734;SDS011;7458;49.002;8.472;2022-09-03T09:52:28;10.95;;;9.13;;
14734;SDS011;7458;49.002;8.472;2022-09-03T09:55:15;11.02;;;9.65;;
14734;SDS011;7458;49.002;8.472;2022-09-03T09:57:44;10.68;;;9.48;;
14734;SDS011;7458;49.002;8.472;2022-09-03T10:00:12;12.75;;;10.30;;
14734;SDS011;7458;49.002;8.472;2022-09-03T10:02:47;13.70;;;9.48;;
14734;SDS011;7458;49.002;8.472;2022-09-03T10:05:22;10.52;;;8.02;;
14734;SDS011;7458;49.002;8.472;2022-09-03T10:08:04;10.10;;;9.18;;
14734;SDS011;7458;49.002;8.472;2022-09-03T10:10:46;9.27;;;7.03;;
14734;SDS011;7458;49.002;8.472;2022-09-03T10:13:22;9.18;;;8.27;;
14734;SDS011;7458;49.002;8.472;2022-09-03T10:16:01;8.48;;;7.60;;
14734;SDS011;7458;49.002;8.472;2022-09-03T10:21:44;8.88;;;7.97;;
14734;SDS011;7458;49.002;8.472;2022-09-03T10:27:26;9.15;;;6.63;;
14734;SDS011;7458;49.002;8.472;2022-09-03T10:29:54;8.75;;;6.75;;
14734;SDS011;7458;49.002;8.472;2022-09-03T10:32:41;8.10;;;7.15;;
14734;SDS011;7458;49.002;8.472;2022-09-03T10:35:30;9.95;;;7.10;;
14734;SDS011;7458;49.002;8.472;2022-09-03T10:46:43;8.70;;;6.68;;
14734;SDS011;7458;49.002;8.472;2022-09-03T10:49:19;8.77;;;6.97;;
14734;SDS011;7458;49.002;8.472;2022-09-03T10:54:54;8.77;;;7.97;;
14734;SDS011;7458;49.002;8.472;2022-09-03T10:57:38;7.13;;;6.45;;
14734;SDS011;7458;49.002;8.472;2022-09-03T11:00:25;7.30;;;5.95;;
14734;SDS011;7458;49.002;8.472;2022-09-03T11:03:19;6.68;;;5.57;;
14734;SDS011;7458;49.002;8.472;2022-09-03T11:06:15;9.55;;;6.88;;
14734;SDS011;7458;49.002;8.472;2022-09-03T11:08:54;6.90;;;6.20;;
14734;SDS011;7458;49.002;8.472;2022-09-03T11:11:54;7.95;;;6.65;;
14734;SDS011;7458;49.002;8.472;2022-09-03T11:14:33;9.93;;;6.95;;
14734;SDS011;7458;49.002;8.472;2022-09-03T11:17:14;10.35;;;7.60;;
14734;SDS011;7458;49.002;8.472;2022-09-03T11:19:52;8.48;;;7.35;;
14734;SDS011;7458;49.002;8.472;2022-09-03T11:22:29;9.65;;;8.73;;
14734;SDS011;7458;49.002;8.472;2022-09-03T11:24:57;10.20;;;9.30;;
14734;SDS011;7458;49.002;8.472;2022-09-03T11:33:18;11.48;;;10.13;;
14734;SDS011;7458;49.002;8.472;2022-09-03T11:35:54;15.85;;;9.38;;
14734;SDS011;7458;49.002;8.472;2022-09-03T11:38:25;9.50;;;8.60;;
14734;SDS011;7458;49.002;8.472;2022-09-03T11:43:27;17.52;;;8.93;;
14734;SDS011;7458;49.002;8.472;2022-09-03T11:46:08;10.88;;;9.77;;
14734;SDS011;7458;49.002;8.472;2022-09-03T11:53:54;10.23;;;8.73;;
14734;SDS011;7458;49.002;8.472;2022-09-03T11:56:38;9.45;;;8.45;;
14734;SDS011;7458;49.002;8.472;2022-09-03T12:01:37;8.70;;;7.90;;
14734;SDS011;7458;49.002;8.472;2022-09-03T12:04:16;11.15;;;10.00;;
14734;SDS011;7458;49.002;8.472;2022-09-03T12:09:53;10.00;;;9.13;;
14734;SDS011;7458;49.002;8.472;2022-09-03T12:18:40;10.02;;;9.00;;
14734;SDS011;7458;49.002;8.472;2022-09-03T12:21:09;8.98;;;8.07;;
14734;SDS011;7458;49.002;8.472;2022-09-03T12:23:49;8.45;;;7.65;;
14734;SDS011;7458;49.002;8.472;2022-09-03T12:26:21;8.23;;;7.45;;
14734;SDS011;7458;49.002;8.472;2022-09-03T12:28:54;7.47;;;6.78;;
14734;SDS011;7458;49.002;8.472;2022-09-03T12:31:24;8.60;;;7.90;;
14734;SDS011;7458;49.002;8.472;2022-09-03T12:36:38;7.80;;;7.03;;
14734;SDS011;7458;49.002;8.472;2022-09-03T12:41:34;8.43;;;7.72;;
14734;SDS011;7458;49.002;8.472;2022-09-03T12:44:00;10.55;;;7.30;;
14734;SDS011;7458;49.002;8.472;2022-09-03T12:46:27;7.65;;;6.95;;
14734;SDS011;7458;49.002;8.472;2022-09-03T12:49:00;8.27;;;7.45;;
14734;SDS011;7458;49.002;8.472;2022-09-03T12:51:33;13.82;;;8.52;;
14734;SDS011;7458;49.002;8.472;2022-09-03T12:54:04;8.68;;;7.55;;
14734;SDS011;7458;49.002;8.472;2022-09-03T12:56:37;8.35;;;7.43;;
14734;SDS011;7458;49.002;8.472;2022-09-03T12:59:05;8.93;;;8.02;;
14734;SDS011;7458;49.002;8.472;2022-09-03T13:01:43;8.93;;;7.35;;
14734;SDS011;7458;49.002;8.472;2022-09-03T13:04:27;8.48;;;7.60;;
14734;SDS011;7458;49.002;8.472;2022-09-03T13:07:10;9.85;;;7.45;;
14734;SDS011;7458;49.002;8.472;2022-09-03T13:10:00;7.82;;;7.13;;
14734;SDS011;7458;49.002;8.472;2022-09-03T13:12:41;7.38;;;6.68;;
14734;SDS011;7458;49.002;8.472;2022-09-03T13:15:23;7.47;;;6.80;;
14734;SDS011;7458;49.002;8.472;2022-09-03T13:23:42;6.68;;;5.97;;
14734;SDS011;7458;49.002;8.472;2022-09-03T13:32:36;4.95;;;3.80;;
14734;SDS011;7458;49.002;8.472;2022-09-03T13:47:27;2.90;;;2.13;;
14734;SDS011;7458;49.002;8.472;2022-09-03T13:50:28;2.78;;;1.75;;
14734;SDS011;7458;49.002;8.472;2022-09-03T13:53:07;2.63;;;1.70;;
14734;SDS011;7458;49.002;8.472;2022-09-03T13:56:05;2.22;;;1.80;;
14734;SDS011;7458;49.002;8.472;2022-09-03T13:58:59;2.60;;;1.90;;
14734;SDS011;7458;49.002;8.472;2022-09-03T14:02:04;5.28;;;1.60;;
14734;SDS011;7458;49.002;8.472;2022-09-03T14:07:26;3.65;;;1.13;;
14734;SDS011;7458;49.002;8.472;2022-09-03T14:10:20;2.13;;;1.58;;
14734;SDS011;7458;49.002;8.472;2022-09-03T14:13:16;2.38;;;1.60;;
14734;SDS011;7458;49.002;8.472;2022-09-03T14:16:29;2.50;;;1.50;;
14734;SDS011;7458;49.002;8.472;2022-09-03T14:19:14;2.03;;;1.67;;
14734;SDS011;7458;49.002;8.472;2022-09-03T14:22:19;2.25;;;1.60;;
14734;SDS011;7458;49.002;8.472;2022-09-03T14:24:54;2.15;;;1.63;;
14734;SDS011;7458;49.002;8.472;2022-09-03T14:27:33;1.20;;;1.10;;
14734;SDS011;7458;49.002;8.472;2022-09-03T14:30:15;2.08;;;1.13;;
14734;SDS011;7458;49.002;8.472;2022-09-03T14:47:42;2.05;;;1.30;;
14734;SDS011;7458;49.002;8.472;2022-09-03T14:50:51;1.52;;;1.25;;
14734;SDS011;7458;49.002;8.472;2022-09-03T14:53:46;1.98;;;1.45;;
14734;SDS011;7458;49.002;8.472;2022-09-03T15:08:37;2.92;;;1.60;;
14734;SDS011;7458;49.002;8.472;2022-09-03T15:11:34;1.70;;;1.38;;
14734;SDS011;7458;49.002;8.472;2022-09-03T15:22:55;1.42;;;1.30;;
14734;SDS011;7458;49.002;8.472;2022-09-03T15:28:31;2.00;;;1.70;;
14734;SDS011;7458;49.002;8.472;2022-09-03T15:31:15;2.17;;;1.48;;
14734;SDS011;7458;49.002;8.472;2022-09-03T15:34:09;3.22;;;1.63;;
14734;SDS011;7458;49.002;8.472;2022-09-03T15:36:55;2.25;;;1.58;;
14734;SDS011;7458;49.002;8.472;2022-09-03T15:39:29;1.40;;;1.30;;
14734;SDS011;7458;49.002;8.472;2022-09-03T15:42:08;2.30;;;1.95;;
14734;SDS011;7458;49.002;8.472;2022-09-03T15:44:49;3.10;;;1.98;;
14734;SDS011;7458;49.002;8.472;2022-09-03T15:50:23;2.42;;;1.98;;
14734;SDS011;7458;49.002;8.472;2022-09-03T15:56:27;2.10;;;1.42;;
14734;SDS011;7458;49.002;8.472;2022-09-03T16:10:06;1.90;;;1.48;;
14734;SDS011;7458;49.002;8.472;2022-09-03T16:12:58;2.42;;;1.42;;
14734;SDS011;7458;49.002;8.472;2022-09-03T16:16:03;2.40;;;1.65;;
14734;SDS011;7458;49.002;8.472;2022-09-03T16:21:54;3.50;;;1.92;;
14734;SDS011;7458;49.002;8.472;2022-09-03T16:24:36;2.15;;;1.65;;
14734;SDS011;7458;49.002;8.472;2022-09-03T16:27:21;2.42;;;1.55;;
14734;SDS011;7458;49.002;8.472;2022-09-03T16:29:55;2.70;;;1.65;;
14734;SDS011;7458;49.002;8.472;2022-09-03T16:36:02;1.38;;;1.25;;
14734;SDS011;7458;49.002;8.472;2022-09-03T16:41:32;1.80;;;1.38;;
14734;SDS011;7458;49.002;8.472;2022-09-03T16:44:36;5.28;;;1.90;;
14734;SDS011;7458;49.002;8.472;2022-09-03T17:19:44;2.17;;;1.50;;
14734;SDS011;7458;49.002;8.472;2022-09-03T17:22:47;7.57;;;2.05;;
14734;SDS011;7458;49.002;8.472;2022-09-03T17:25:49;2.75;;;1.75;;
14734;SDS011;7458;49.002;8.472;2022-09-03T17:31:30;2.33;;;1.55;;
14734;SDS011;7458;49.002;8.472;2022-09-03T17:34:37;3.35;;;1.67;;
14734;SDS011;7458;49.002;8.472;2022-09-03T18:01:49;2.20;;;1.73;;
14734;SDS011;7458;49.002;8.472;2022-09-03T18:18:58;5.75;;;4.07;;
14734;SDS011;7458;49.002;8.472;2022-09-03T18:21:42;4.60;;;3.33;;
14734;SDS011;7458;49.002;8.472;2022-09-03T18:24:33;2.97;;;2.13;;
14734;SDS011;7458;49.002;8.472;2022-09-03T18:27:26;6.10;;;2.40;;
14734;SDS011;7458;49.002;8.472;2022-09-03T18:30:27;7.40;;;2.90;;
14734;SDS011;7458;49.002;8.472;2022-09-03T18:33:11;3.67;;;2.78;;
14734;SDS011;7458;49.002;8.472;2022-09-03T18:36:00;4.70;;;2.80;;
14734;SDS011;7458;49.002;8.472;2022-09-03T18:38:45;3.60;;;2.90;;
14734;SDS011;7458;49.002;8.472;2022-09-03T19:04:14;5.90;;;2.60;;
14734;SDS011;7458;49.002;8.472;2022-09-03T19:13:43;9.70;;;2.53;;
14734;SDS011;7458;49.002;8.472;2022-09-03T19:23:07;5.78;;;2.45;;
14734;SDS011;7458;49.002;8.472;2022-09-03T19:25:52;2.90;;;2.17;;
14734;SDS011;7458;49.002;8.472;2022-09-03T19:28:46;5.82;;;3.22;;
14734;SDS011;7458;49.002;8.472;2022-09-03T19:34:37;5.70;;;2.35;;
14734;SDS011;7458;49.002;8.472;2022-09-03T19:46:54;4.18;;;2.85;;
14734;SDS011;7458;49.002;8.472;2022-09-03T19:53:00;5.82;;;3.22;;
14734;SDS011;7458;49.002;8.472;2022-09-03T19:58:40;8.88;;;3.15;;
14734;SDS011;7458;49.002;8.472;2022-09-03T20:01:35;3.55;;;2.97;;
14734;SDS011;7458;49.002;8.472;2022-09-03T20:04:22;4.90;;;4.10;;
14734;SDS011;7458;49.002;8.472;2022-09-03T20:07:15;4.97;;;4.18;;
14734;SDS011;7458;49.002;8.472;2022-09-03T20:10:03;6.63;;;3.72;;
14734;SDS011;7458;49.002;8.472;2022-09-03T20:13:08;6.07;;;3.60;;
14734;SDS011;7458;49.002;8.472;2022-09-03T20:15:43;3.83;;;3.25;;
14734;SDS011;7458;49.002;8.472;2022-09-03T20:23:54;3.75;;;3.20;;
14734;SDS011;7458;49.002;8.472;2022-09-03T20:32:36;6.05;;;3.15;;
14734;SDS011;7458;49.002;8.472;2022-09-03T20:40:56;3.72;;;2.65;;
14734;SDS011;7458;49.002;8.472;2022-09-03T20:59:07;3.92;;;3.50;;
14734;SDS011;7458;49.002;8.472;2022-09-03T21:05:05;4.30;;;3.38;;
14734;SDS011;7458;49.002;8.472;2022-09-03T21:11:03;7.90;;;3.53;;
14734;SDS011;7458;49.002;8.472;2022-09-03T21:25:38;4.28;;;2.58;;
14734;SDS011;7458;49.002;8.472;2022-09-03T21:28:14;8.38;;;3.88;;
14734;SDS011;7458;49.002;8.472;2022-09-03T21:31:11;6.60;;;3.53;;
14734;SDS011;7458;49.002;8.472;2022-09-03T21:33:47;3.88;;;3.30;;
14734;SDS011;7458;49.002;8.472;2022-09-03T21:36:30;5.93;;;3.33;;
14734;SDS011;7458;49.002;8.472;2022-09-03T21:39:19;7.00;;;4.35;;
14734;SDS011;7458;49.002;8.472;2022-09-03T21:42:02;4.97;;;3.42;;
14734;SDS011;7458;49.002;8.472;2022-09-03T21:47:39;4.22;;;3.25;;
14734;SDS011;7458;49.002;8.472;2022-09-03T21:50:19;1358.45;;;999.90;;
14734;SDS011;7458;49.002;8.472;2022-09-03T22:01:18;1339.22;;;999.90;;
14734;SDS011;7458;49.002;8.472;2022-09-03T22:04:27;1332.35;;;999.90;;
14734;SDS011;7458;49.002;8.472;2022-09-03T22:09:52;1318.65;;;999.90;;
14734;SDS011;7458;49.002;8.472;2022-09-03T22:12:31;1318.10;;;999.90;;
14734;SDS011;7458;49.002;8.472;2022-09-03T22:15:33;1384.53;;;999.90;;
14734;SDS011;7458;49.002;8.472;2022-09-03T22:18:07;1311.25;;;999.90;;
14734;SDS011;7458;49.002;8.472;2022-09-03T22:20:51;1310.20;;;999.90;;
14734;SDS011;7458;49.002;8.472;2022-09-03T22:24:00;1311.32;;;999.90;;